Time;durP1;ratioP1;P1;durP2;ratioP2;P2;SDS_P1;SDS_P2;PMS_P1;PMS_P2;Temp;Humidity;BMP_temperature;BMP_pressure;BME280_temperature;BME280_humidity;BME280_pressure;Samples;Min_cycle;Max_cycle;Signal;HPM_P1;HPM_P2
2022/12/23 00:00:59;;;;;;;0.50;0.10;;;10.80;1.00;;;;;;4862050;29;20818;-77
2022/12/23 00:03:29;;;;;;;0.50;0.10;;;10.90;1.00;;;;;;4865533;29;20443;-76
2022/12/23 00:05:58;;;;;;;0.50;0.10;;;10.90;1.00;;;;;;4867995;29;20471;-75
2022/12/23 00:08:27;;;;;;;0.50;0.10;;;10.90;1.00;;;;;;4859166;29;20589;-76
2022/12/23 00:10:56;;;;;;;0.50;0.10;;;10.90;1.00;;;;;;4863996;29;20462;-77
2022/12/23 00:16:12;;;;;;;0.70;0.60;;;10.90;1.00;;;;;;4853649;29;20455;-76
2022/12/23 00:18:42;;;;;;;2.20;0.50;;;10.90;1.00;;;;;;4842661;29;20996;-75
2022/12/23 00:21:11;;;;;;;0.50;0.30;;;10.90;1.00;;;;;;4848642;29;20826;-75
2022/12/23 00:23:41;;;;;;;0.60;0.30;;;10.90;1.00;;;;;;4861460;29;20451;-77
2022/12/23 00:26:14;;;;;;;0.50;0.20;;;10.90;1.00;;;;;;4862445;29;20459;-77
2022/12/23 00:28:43;;;;;;;0.80;0.67;;;10.90;1.00;;;;;;4863354;29;20462;-76
2022/12/23 00:31:12;;;;;;;0.50;0.10;;;10.90;1.00;;;;;;4862726;29;20951;-76
2022/12/23 00:33:42;;;;;;;0.50;0.10;;;10.90;1.00;;;;;;4861515;29;20463;-76
2022/12/23 00:36:16;;;;;;;0.50;0.10;;;10.90;1.00;;;;;;4862748;29;20452;-74
2022/12/23 00:44:15;;;;;;;0.50;0.10;;;10.90;1.00;;;;;;4860357;29;20474;-75
2022/12/23 00:46:44;;;;;;;0.50;0.10;;;10.90;1.00;;;;;;4860116;29;20459;-75
2022/12/23 00:52:00;;;;;;;0.50;0.10;;;10.90;1.00;;;;;;4859331;29;21027;-73
2022/12/23 00:54:28;;;;;;;0.50;0.10;;;10.90;1.00;;;;;;4859339;29;21042;-75
2022/12/23 00:56:56;;;;;;;0.50;0.10;;;10.90;1.00;;;;;;4907366;23;20512;-79
2022/12/23 00:59:24;;;;;;;0.50;0.13;;;11.00;1.00;;;;;;4909269;29;20450;-79
2022/12/23 05:00:46;;;;;;;0.50;0.10;;;10.40;99.90;;;;;;5829048;23;20384;-76
2022/12/23 05:03:14;;;;;;;0.50;0.10;;;10.30;99.90;;;;;;4877498;29;20474;-76
2022/12/23 05:05:43;;;;;;;1.37;1.27;;;10.20;99.90;;;;;;4892738;29;20533;-75
2022/12/23 05:08:11;;;;;;;0.50;0.10;;;10.10;1.00;;;;;;4887874;29;20510;-76
2022/12/23 05:10:39;;;;;;;1.43;0.77;;;10.00;1.00;;;;;;4879194;29;20450;-76
2022/12/23 05:13:06;;;;;;;0.50;0.10;;;10.00;1.00;;;;;;4892684;23;20459;-81
2022/12/23 05:15:34;;;;;;;0.50;0.10;;;10.00;1.00;;;;;;4901584;29;20501;-82
2022/12/23 05:18:04;;;;;;;1.13;0.60;;;10.00;1.00;;;;;;4911096;29;20884;-82
2022/12/23 05:20:32;;;;;;;0.50;0.10;;;10.10;1.00;;;;;;4919503;29;20467;-81
2022/12/23 05:23:00;;;;;;;0.50;0.10;;;10.10;1.00;;;;;;4933254;29;20493;-79
2022/12/23 05:25:27;;;;;;;1.47;1.37;;;10.10;1.00;;;;;;4926961;29;20463;-82
2022/12/23 05:27:56;;;;;;;1.00;0.57;;;10.10;1.00;;;;;;4921218;29;20846;-81
2022/12/23 05:30:24;;;;;;;0.50;0.10;;;10.10;1.00;;;;;;4901831;29;20470;-81
2022/12/23 05:32:53;;;;;;;0.50;0.20;;;10.10;1.00;;;;;;4920178;29;20990;-79
2022/12/23 05:35:24;;;;;;;0.50;0.10;;;10.10;1.00;;;;;;4924765;29;20509;-77
2022/12/23 05:37:52;;;;;;;0.50;0.10;;;10.10;1.00;;;;;;4929284;29;20441;-82
2022/12/23 05:40:20;;;;;;;0.50;0.10;;;10.20;1.00;;;;;;4908607;29;20544;-81
2022/12/23 05:42:55;;;;;;;0.60;0.30;;;10.20;1.00;;;;;;4895677;29;20445;-79
2022/12/23 05:45:23;;;;;;;0.77;0.40;;;10.20;1.00;;;;;;4914876;29;20445;-81
2022/12/23 05:47:51;;;;;;;0.50;0.10;;;10.20;1.00;;;;;;4901799;29;20460;-82
2022/12/23 05:50:19;;;;;;;0.50;0.10;;;10.20;1.00;;;;;;4909130;29;20564;-78
2022/12/23 05:52:48;;;;;;;0.50;0.10;;;10.10;1.00;;;;;;4893703;29;20442;-80
2022/12/23 05:55:16;;;;;;;0.50;0.10;;;10.80;1.00;;;;;;4909773;29;20493;-78
2022/12/23 05:57:44;;;;;;;0.90;0.73;;;10.20;1.00;;;;;;4921764;29;20437;-79
2022/12/23 06:00:13;;;;;;;0.50;0.10;;;10.20;1.00;;;;;;4921379;29;20444;-78
2022/12/23 06:02:41;;;;;;;0.50;0.10;;;10.20;1.00;;;;;;4914243;29;20469;-81
2022/12/23 06:05:14;;;;;;;0.50;0.10;;;10.20;1.00;;;;;;4925410;29;20476;-79
2022/12/23 06:07:42;;;;;;;0.50;0.10;;;10.20;1.00;;;;;;4921478;29;20441;-80
2022/12/23 06:10:11;;;;;;;0.50;0.10;;;10.20;1.00;;;;;;4913403;29;20893;-80
2022/12/23 06:12:39;;;;;;;0.60;0.43;;;10.20;99.90;;;;;;4912877;29;20881;-79
2022/12/23 06:15:08;;;;;;;0.50;0.10;;;10.20;99.90;;;;;;4914902;29;20488;-79
2022/12/23 06:17:36;;;;;;;0.50;0.10;;;10.20;99.90;;;;;;4908903;29;20827;-79
2022/12/23 06:20:05;;;;;;;0.80;0.57;;;10.20;99.90;;;;;;4920962;29;20457;-80
2022/12/23 06:22:33;;;;;;;0.60;0.47;;;10.10;99.90;;;;;;4925140;29;20479;-78
2022/12/23 06:25:01;;;;;;;9.60;7.73;;;10.00;99.90;;;;;;4939625;29;20473;-78
2022/12/23 06:27:30;;;;;;;0.67;0.60;;;10.00;99.90;;;;;;4937394;29;20516;-80
2022/12/23 06:29:58;;;;;;;0.50;0.10;;;9.90;99.90;;;;;;4927033;29;20444;-80
2022/12/23 06:32:25;;;;;;;0.50;0.20;;;10.00;99.90;;;;;;4923342;29;20463;-80
2022/12/23 06:34:59;;;;;;;0.73;0.73;;;10.00;99.90;;;;;;4930345;29;20540;-78
2022/12/23 06:37:27;;;;;;;0.70;0.33;;;10.00;99.90;;;;;;4930593;29;20462;-78
2022/12/23 06:39:55;;;;;;;0.50;0.10;;;10.00;99.90;;;;;;4934551;29;20450;-79
2022/12/23 06:42:23;;;;;;;0.50;0.10;;;10.00;99.90;;;;;;4927123;29;20450;-80
2022/12/23 06:44:52;;;;;;;0.50;0.10;;;10.00;99.90;;;;;;4905699;29;20478;-81
2022/12/23 06:47:20;;;;;;;0.50;0.10;;;10.00;99.90;;;;;;4905165;29;21072;-81
2022/12/23 06:49:48;;;;;;;0.50;0.10;;;10.00;99.90;;;;;;4904229;29;20481;-80
2022/12/23 06:52:16;;;;;;;0.50;0.10;;;10.10;99.90;;;;;;4916733;29;20456;-79
2022/12/23 06:54:44;;;;;;;0.50;0.10;;;10.10;99.90;;;;;;4911023;29;20493;-81
2022/12/23 06:57:13;;;;;;;0.50;0.10;;;10.10;99.90;;;;;;4902040;29;20571;-81
2022/12/23 06:59:40;;;;;;;0.50;0.10;;;10.20;99.90;;;;;;4885602;29;20486;-80
2022/12/23 07:02:11;;;;;;;0.50;0.10;;;10.20;99.90;;;;;;4888289;29;20447;-83
2022/12/23 07:04:39;;;;;;;0.50;0.10;;;10.20;99.90;;;;;;4885302;29;20471;-81
2022/12/23 07:07:07;;;;;;;0.50;0.20;;;10.20;99.90;;;;;;4894569;29;20790;-80
2022/12/23 07:09:35;;;;;;;0.50;0.10;;;10.20;99.90;;;;;;4906018;29;20453;-79
2022/12/23 07:12:03;;;;;;;0.50;0.10;;;10.20;99.90;;;;;;4909750;29;20495;-81
2022/12/23 07:14:31;;;;;;;0.50;0.10;;;10.30;99.90;;;;;;4903789;29;20486;-81
2022/12/23 07:16:59;;;;;;;0.50;0.10;;;10.40;99.90;;;;;;4903407;29;20846;-80
2022/12/23 07:19:28;;;;;;;0.50;0.10;;;10.30;99.90;;;;;;4904305;29;20485;-79
2022/12/23 07:21:56;;;;;;;0.50;0.10;;;10.40;99.90;;;;;;4902632;29;20525;-80
2022/12/23 07:24:24;;;;;;;0.50;0.10;;;10.40;99.90;;;;;;4903981;29;20481;-82
2022/12/23 07:26:54;;;;;;;0.50;0.20;;;10.40;99.90;;;;;;4906237;29;20449;-81
2022/12/23 07:29:22;;;;;;;0.50;0.10;;;10.40;99.90;;;;;;4916078;29;20434;-80
2022/12/23 07:31:51;;;;;;;0.50;0.10;;;;;;;;;;4891646;29;20438;-78
2022/12/23 07:34:19;;;;;;;0.50;0.10;;;10.50;99.90;;;;;;4899375;29;20485;-78
2022/12/23 07:36:49;;;;;;;0.50;0.10;;;10.40;99.90;;;;;;4901191;29;20507;-79
2022/12/23 07:39:16;;;;;;;0.50;0.10;;;10.50;99.90;;;;;;4899431;29;20457;-81
2022/12/23 07:41:44;;;;;;;0.50;0.10;;;10.50;99.90;;;;;;4909513;29;20552;-79
2022/12/23 07:44:12;;;;;;;0.50;0.10;;;10.60;99.90;;;;;;4915751;29;20481;-77
2022/12/23 07:46:40;;;;;;;2.63;2.47;;;10.60;99.90;;;;;;4917711;29;20470;-83
2022/12/23 07:49:08;;;;;;;0.50;0.10;;;10.60;99.90;;;;;;4904877;29;20454;-82
2022/12/23 07:51:36;;;;;;;0.50;0.10;;;10.60;99.90;;;;;;4903780;29;20840;-81
2022/12/23 07:54:05;;;;;;;0.50;0.10;;;10.60;99.90;;;;;;4905989;29;20468;-80
2022/12/23 07:56:33;;;;;;;1.63;0.83;;;10.60;99.90;;;;;;4911779;29;20486;-81
2022/12/23 07:59:01;;;;;;;0.73;0.57;;;10.60;99.90;;;;;;4912272;29;20499;-79
2022/12/23 08:01:29;;;;;;;0.50;0.10;;;10.60;99.90;;;;;;4901437;29;20545;-80
2022/12/23 08:03:57;;;;;;;0.50;0.10;;;10.60;99.90;;;;;;4923438;29;20473;-79
2022/12/23 08:06:25;;;;;;;0.50;0.10;;;10.60;99.90;;;;;;4930092;29;20441;-82
2022/12/23 08:08:52;;;;;;;0.50;0.10;;;10.60;99.90;;;;;;4930144;29;20452;-79
2022/12/23 08:11:22;;;;;;;0.50;0.20;;;;;;;;;;4919824;29;20460;-79
2022/12/23 08:13:51;;;;;;;0.50;0.10;;;10.60;99.90;;;;;;4893470;29;20582;-80
2022/12/23 08:16:19;;;;;;;0.50;0.20;;;10.60;99.90;;;;;;4894433;29;20509;-81
2022/12/23 08:18:47;;;;;;;0.50;0.10;;;10.60;99.90;;;;;;4894680;29;20973;-81
2022/12/23 08:21:18;;;;;;;0.50;0.10;;;10.60;99.90;;;;;;4916153;29;20488;-81
2022/12/23 08:23:47;;;;;;;0.50;0.10;;;10.70;99.90;;;;;;4919211;29;20575;-80
2022/12/23 08:26:17;;;;;;;0.50;0.10;;;10.70;99.90;;;;;;4911251;29;20454;-78
2022/12/23 08:28:46;;;;;;;0.50;0.10;;;10.70;99.90;;;;;;4901430;29;20454;-78
2022/12/23 08:31:16;;;;;;;0.50;0.10;;;10.80;99.90;;;;;;4883455;29;20886;-78
2022/12/23 08:33:47;;;;;;;0.50;0.10;;;10.80;99.90;;;;;;4883423;29;20487;-78
2022/12/23 08:36:18;;;;;;;0.50;0.10;;;10.80;99.90;;;;;;4918314;29;20484;-80
2022/12/23 08:38:51;;;;;;;0.50;0.10;;;10.80;99.90;;;;;;4912698;29;20460;-78
2022/12/23 08:41:22;;;;;;;0.50;0.10;;;10.80;99.90;;;;;;4923499;29;20452;-80
2022/12/23 08:43:51;;;;;;;0.60;0.10;;;10.90;99.90;;;;;;4928515;29;20461;-79
2022/12/23 08:46:20;;;;;;;0.50;0.10;;;;;;;;;;4922811;29;20456;-78
2022/12/23 08:48:49;;;;;;;0.50;0.10;;;;;;;;;;4909758;29;20453;-80
2022/12/23 08:51:18;;;;;;;0.50;0.10;;;10.90;99.90;;;;;;4914948;29;20465;-80
2022/12/23 08:53:47;;;;;;;0.50;0.10;;;11.00;99.90;;;;;;4916772;29;20556;-81
2022/12/23 08:56:17;;;;;;;0.50;0.10;;;11.00;99.90;;;;;;4914962;29;20488;-80
2022/12/23 08:58:52;;;;;;;0.50;0.10;;;11.00;99.90;;;;;;4912192;29;20435;-80
2022/12/23 09:01:23;;;;;;;0.50;0.10;;;11.10;99.90;;;;;;4915282;29;20476;-82
2022/12/23 09:03:51;;;;;;;0.50;0.10;;;11.10;99.90;;;;;;4910630;29;20515;-80
2022/12/23 09:06:22;;;;;;;0.50;0.10;;;11.10;99.90;;;;;;4909874;29;20443;-80
2022/12/23 09:08:57;;;;;;;0.50;0.10;;;10.20;99.90;;;;;;4900464;29;20438;-81
2022/12/23 09:11:27;;;;;;;0.50;0.10;;;11.00;99.90;;;;;;4902768;29;20465;-81
2022/12/23 09:13:58;;;;;;;0.50;0.10;;;11.00;99.90;;;;;;4899358;29;20522;-79
2022/12/23 09:16:29;;;;;;;0.50;0.10;;;11.10;99.90;;;;;;4906583;29;20457;-81
2022/12/23 09:18:57;;;;;;;0.50;0.10;;;11.10;99.90;;;;;;4912490;29;20452;-81
2022/12/23 09:21:26;;;;;;;0.53;0.20;;;11.00;99.90;;;;;;4915100;29;20450;-79
2022/12/23 09:23:54;;;;;;;0.67;0.67;;;11.00;99.90;;;;;;4907135;29;20478;-83
2022/12/23 09:26:23;;;;;;;8.63;0.67;;;11.00;99.90;;;;;;4903550;29;20489;-80
2022/12/23 09:28:52;;;;;;;0.50;0.10;;;10.90;99.90;;;;;;4902898;29;20456;-80
2022/12/23 09:31:22;;;;;;;0.50;0.10;;;10.90;99.90;;;;;;4906080;29;20461;-81
2022/12/23 09:33:53;;;;;;;0.50;0.13;;;10.90;99.90;;;;;;4905252;29;21000;-80
2022/12/23 09:36:22;;;;;;;0.50;0.10;;;10.90;99.90;;;;;;4918903;29;20465;-81
2022/12/23 09:38:54;;;;;;;0.50;0.10;;;11.00;99.90;;;;;;4906340;29;20541;-81
2022/12/23 09:41:34;;;;;;;0.50;0.30;;;11.00;99.90;;;;;;4906714;29;20449;-82
2022/12/23 09:44:22;;;;;;;0.50;0.10;;;11.00;99.90;;;;;;4897119;29;20470;-79
2022/12/23 09:46:56;;;;;;;0.50;0.10;;;11.00;99.90;;;;;;4897390;29;20439;-78
2022/12/23 09:49:24;;;;;;;14.30;1.50;;;11.00;99.90;;;;;;4894321;29;20450;-79
2022/12/23 09:51:58;;;;;;;0.50;0.30;;;11.10;99.90;;;;;;4890738;29;20447;-78
2022/12/23 09:54:29;;;;;;;0.60;0.40;;;11.10;99.90;;;;;;4912533;29;20501;-81
2022/12/23 09:57:00;;;;;;;0.50;0.10;;;11.10;99.90;;;;;;4922323;29;20510;-79
2022/12/23 09:59:46;;;;;;;0.50;0.10;;;11.10;99.90;;;;;;4927864;29;20459;-79
2022/12/23 10:02:24;;;;;;;0.50;0.10;;;11.20;99.90;;;;;;4928251;29;20516;-80
2022/12/23 10:05:01;;;;;;;0.50;0.10;;;11.20;99.90;;;;;;4922798;29;20477;-79
2022/12/23 10:07:36;;;;;;;0.50;0.10;;;11.20;99.90;;;;;;4915331;29;20537;-78
2022/12/23 10:10:14;;;;;;;0.50;0.10;;;11.30;99.90;;;;;;4923986;29;20495;-79
2022/12/23 10:12:46;;;;;;;0.50;0.10;;;11.30;99.90;;;;;;4885366;29;20455;-80
2022/12/23 10:15:22;;;;;;;0.50;0.30;;;11.40;99.90;;;;;;4885880;29;20482;-81
2022/12/23 10:17:55;;;;;;;1.57;1.20;;;11.40;99.90;;;;;;4888826;29;20493;-80
2022/12/23 10:20:36;;;;;;;0.50;0.10;;;11.40;99.90;;;;;;4902563;29;20443;-81
2022/12/23 10:23:12;;;;;;;0.50;0.10;;;11.40;99.90;;;;;;4906545;29;20469;-80
2022/12/23 10:25:46;;;;;;;0.50;0.10;;;11.40;99.90;;;;;;4903532;29;20474;-80
2022/12/23 10:28:14;;;;;;;0.50;0.10;;;11.40;97.70;;;;;;4913106;29;20449;-80
2022/12/23 10:30:46;;;;;;;0.50;0.10;;;11.30;94.10;;;;;;4908572;29;20466;-79
2022/12/23 10:33:44;;;;;;;0.50;0.10;;;11.30;99.90;;;;;;4900404;29;20473;-81
2022/12/23 10:36:18;;;;;;;0.50;0.10;;;11.30;99.90;;;;;;4906872;29;20537;-80
2022/12/23 10:38:58;;;;;;;0.50;0.20;;;11.20;99.90;;;;;;4921072;29;20902;-80
2022/12/23 10:41:36;;;;;;;0.50;0.10;;;11.20;99.90;;;;;;4921418;29;20901;-80
2022/12/23 10:44:37;;;;;;;0.50;0.10;;;11.20;99.90;;;;;;4902642;29;20474;-81
2022/12/23 10:47:18;;;;;;;0.50;0.10;;;11.20;99.90;;;;;;4864634;29;20479;-79
2022/12/23 10:49:59;;;;;;;2.50;2.30;;;11.20;99.90;;;;;;4888185;29;20463;-81
2022/12/23 10:52:29;;;;;;;0.50;0.10;;;11.20;99.90;;;;;;4893016;29;20459;-80
2022/12/23 10:54:57;;;;;;;0.50;0.10;;;11.20;99.90;;;;;;4907844;29;20462;-79
2022/12/23 10:57:25;;;;;;;0.50;0.10;;;11.30;99.90;;;;;;4907530;29;20565;-81
2022/12/23 10:59:53;;;;;;;0.50;0.10;;;11.30;99.90;;;;;;4911073;29;20442;-80
2022/12/23 11:02:38;;;;;;;0.50;0.10;;;11.90;99.90;;;;;;4912519;29;20458;-80
2022/12/23 11:05:14;;;;;;;0.50;0.10;;;11.40;99.90;;;;;;4902454;29;20505;-79
2022/12/23 11:07:45;;;;;;;0.50;0.10;;;11.40;99.90;;;;;;4901716;29;20454;-79
2022/12/23 11:10:17;;;;;;;0.50;0.10;;;11.40;99.90;;;;;;4902154;29;20965;-79
2022/12/23 11:12:48;;;;;;;0.50;0.10;;;11.40;99.90;;;;;;4902654;29;20454;-80
2022/12/23 11:15:30;;;;;;;0.50;0.10;;;11.40;99.90;;;;;;4900563;29;20664;-80
2022/12/23 11:18:19;;;;;;;0.50;0.10;;;11.40;99.90;;;;;;4903770;29;20480;-80
2022/12/23 11:21:03;;;;;;;0.60;0.30;;;11.40;99.90;;;;;;4917185;29;20492;-80
2022/12/23 11:23:34;;;;;;;0.50;0.10;;;11.40;99.90;;;;;;4914363;29;20473;-81
2022/12/23 11:26:06;;;;;;;0.50;0.10;;;11.50;99.90;;;;;;4906395;29;20441;-80
2022/12/23 11:28:38;;;;;;;0.50;0.10;;;11.40;99.90;;;;;;4904074;29;20969;-80
2022/12/23 11:31:10;;;;;;;0.50;0.10;;;11.50;99.90;;;;;;4905092;29;20464;-81
2022/12/23 11:33:41;;;;;;;0.50;0.10;;;11.50;99.90;;;;;;4903197;29;20496;-81
2022/12/23 11:36:19;;;;;;;0.50;0.10;;;11.50;99.90;;;;;;4903066;29;20533;-81
2022/12/23 11:38:50;;;;;;;0.50;0.10;;;11.50;99.90;;;;;;4901038;29;20568;-79
2022/12/23 11:41:21;;;;;;;0.50;0.10;;;11.60;99.90;;;;;;4902569;29;20431;-81
2022/12/23 11:43:57;;;;;;;0.50;0.10;;;11.60;99.90;;;;;;4904382;29;20461;-79
2022/12/23 11:46:28;;;;;;;0.50;0.10;;;11.60;99.90;;;;;;4913978;29;20481;-80
2022/12/23 11:49:13;;;;;;;0.50;0.10;;;11.60;99.90;;;;;;4923106;29;20510;-80
2022/12/23 11:51:43;;;;;;;0.50;0.20;;;11.60;99.90;;;;;;4914771;29;20482;-79
2022/12/23 11:54:18;;;;;;;0.50;0.10;;;11.60;99.90;;;;;;4908471;29;21000;-81
2022/12/23 11:56:49;;;;;;;0.50;0.10;;;11.60;99.90;;;;;;4900487;29;20547;-81
2022/12/23 11:59:30;;;;;;;0.50;0.10;;;11.60;99.90;;;;;;4903723;29;20557;-81
2022/12/23 12:02:00;;;;;;;0.50;0.10;;;11.60;99.90;;;;;;4907143;29;20454;-80
2022/12/23 12:04:33;;;;;;;0.50;0.10;;;11.70;99.90;;;;;;4907227;29;20630;-80
2022/12/23 12:07:04;;;;;;;0.50;0.10;;;11.70;99.90;;;;;;4907636;29;20461;-82
2022/12/23 12:09:33;;;;;;;9.13;8.27;;;11.70;99.90;;;;;;4907934;29;20438;-81
2022/12/23 12:12:06;;;;;;;0.50;0.10;;;11.70;99.90;;;;;;4905962;29;20456;-81
2022/12/23 12:14:41;;;;;;;0.50;0.20;;;11.70;99.90;;;;;;4903144;29;20489;-78
2022/12/23 12:17:17;;;;;;;0.50;0.10;;;11.80;99.90;;;;;;4901406;29;20443;-79
2022/12/23 12:19:56;;;;;;;0.50;0.20;;;11.80;99.90;;;;;;4897976;29;20485;-79
2022/12/23 12:22:36;;;;;;;0.50;0.10;;;11.70;99.90;;;;;;4906365;29;20472;-79
2022/12/23 12:25:15;;;;;;;0.50;0.10;;;11.70;99.90;;;;;;4910650;29;20475;-79
2022/12/23 12:27:47;;;;;;;0.50;0.10;;;11.80;99.90;;;;;;4902606;29;20463;-80
2022/12/23 12:30:18;;;;;;;0.50;0.10;;;11.80;99.90;;;;;;4913540;29;20446;-78
2022/12/23 12:32:53;;;;;;;0.50;0.10;;;11.80;99.90;;;;;;4903535;29;20458;-79
2022/12/23 12:35:27;;;;;;;0.50;0.10;;;11.80;99.90;;;;;;4906281;29;20441;-79
2022/12/23 12:38:04;;;;;;;0.50;0.10;;;11.80;99.90;;;;;;4915502;29;20868;-79
2022/12/23 12:40:40;;;;;;;0.50;0.10;;;11.80;99.90;;;;;;4922848;29;20453;-79
2022/12/23 12:43:19;;;;;;;0.50;0.10;;;11.80;99.90;;;;;;4921791;29;20636;-82
2022/12/23 12:45:52;;;;;;;0.50;0.10;;;11.80;99.90;;;;;;4909498;29;20449;-81
2022/12/23 12:48:32;;;;;;;0.50;0.10;;;11.70;99.90;;;;;;4909798;29;20845;-80
2022/12/23 12:51:05;;;;;;;0.50;0.10;;;11.80;99.90;;;;;;4915345;29;20461;-81
2022/12/23 12:53:36;;;;;;;0.50;0.10;;;11.80;99.90;;;;;;4901259;29;20522;-81
2022/12/23 12:56:12;;;;;;;0.50;0.10;;;11.80;99.90;;;;;;4911256;29;20442;-82
2022/12/23 12:58:40;;;;;;;41.30;26.53;;;11.80;99.90;;;;;;4911707;29;20488;-79
2022/12/23 13:01:23;;;;;;;2.53;2.43;;;11.80;99.90;;;;;;4918010;29;20637;-80
2022/12/23 13:04:25;;;;;;;2.77;2.57;;;11.80;99.90;;;;;;4909690;29;20596;-81
2022/12/23 13:07:01;;;;;;;0.50;0.10;;;11.80;99.90;;;;;;4919359;29;20467;-82
2022/12/23 13:09:39;;;;;;;0.50;0.10;;;11.80;99.90;;;;;;4916127;29;20489;-82
2022/12/23 13:12:15;;;;;;;0.50;0.10;;;11.80;99.90;;;;;;4910068;29;20446;-81
2022/12/23 13:14:53;;;;;;;0.50;0.10;;;11.80;99.90;;;;;;4910476;29;20480;-81
2022/12/23 13:17:32;;;;;;;0.50;0.10;;;11.80;99.90;;;;;;4917500;29;20488;-80
2022/12/23 13:20:14;;;;;;;0.50;0.20;;;11.80;99.90;;;;;;4924721;29;20869;-81
2022/12/23 13:22:44;;;;;;;0.50;0.10;;;11.80;99.90;;;;;;4913010;29;20654;-80
2022/12/23 13:25:17;;;;;;;0.50;0.10;;;11.80;99.90;;;;;;4918747;29;20473;-79
2022/12/23 13:27:54;;;;;;;0.50;0.10;;;11.80;99.90;;;;;;4909250;29;20502;-80
2022/12/23 13:30:23;;;;;;;0.50;0.10;;;12.60;99.90;;;;;;4920413;29;20457;-81
2022/12/23 13:33:13;;;;;;;4.83;4.63;;;11.80;99.90;;;;;;4918745;29;20444;-80
2022/12/23 13:35:57;;;;;;;0.97;0.97;;;11.80;99.90;;;;;;4917454;29;20520;-80
2022/12/23 13:38:58;;;;;;;0.50;0.10;;;11.80;99.90;;;;;;4923335;29;20449;-81
2022/12/23 13:41:32;;;;;;;0.50;0.20;;;11.70;99.90;;;;;;4919778;29;20449;-81
2022/12/23 13:44:02;;;;;;;0.50;0.10;;;11.70;99.90;;;;;;4916640;29;20476;-80
2022/12/23 13:46:40;;;;;;;0.50;0.10;;;11.70;99.90;;;;;;4914607;29;20470;-79
2022/12/23 13:49:16;;;;;;;0.50;0.10;;;11.70;99.90;;;;;;4906588;29;21012;-81
2022/12/23 13:51:51;;;;;;;0.50;0.10;;;11.70;99.90;;;;;;4904497;29;21036;-80
2022/12/23 13:54:27;;;;;;;0.50;0.10;;;11.70;99.90;;;;;;4903835;29;20512;-81
2022/12/23 13:57:07;;;;;;;0.50;0.20;;;11.70;99.90;;;;;;4910382;29;20481;-82
2022/12/23 13:59:39;;;;;;;0.50;0.10;;;11.70;99.90;;;;;;4910675;29;20996;-79
2022/12/23 14:02:42;;;;;;;0.50;0.10;;;11.70;1.00;;;;;;4898942;29;20457;-82
2022/12/23 14:05:28;;;;;;;0.50;0.10;;;11.80;1.00;;;;;;4902756;29;20472;-79
2022/12/23 14:07:56;;;;;;;0.50;0.10;;;11.70;99.90;;;;;;4921154;29;20448;-81
2022/12/23 14:10:25;;;;;;;0.50;0.10;;;11.80;1.00;;;;;;4909464;29;20469;-79
2022/12/23 14:13:01;;;;;;;1.40;1.30;;;11.70;1.00;;;;;;4893403;29;20461;-80
2022/12/23 14:15:54;;;;;;;0.50;0.10;;;11.70;1.00;;;;;;4911542;29;20472;-81
2022/12/23 14:18:46;;;;;;;0.50;0.10;;;11.60;1.00;;;;;;4912790;29;20453;-82
2022/12/23 14:21:25;;;;;;;0.50;0.10;;;11.60;1.00;;;;;;4910479;29;20448;-81
2022/12/23 14:24:11;;;;;;;0.50;0.10;;;11.70;1.00;;;;;;4910771;29;20862;-82
2022/12/23 14:27:20;;;;;;;0.50;0.10;;;11.70;1.00;;;;;;4905326;29;20616;-82
2022/12/23 14:30:02;;;;;;;0.50;0.10;;;11.70;1.00;;;;;;4897663;29;20426;-80
2022/12/23 14:32:43;;;;;;;0.50;0.10;;;11.70;1.00;;;;;;4919007;29;20442;-81
2022/12/23 14:35:21;;;;;;;0.50;0.10;;;11.70;1.00;;;;;;4920120;29;20471;-80
2022/12/23 14:38:21;;;;;;;0.50;0.10;;;11.70;1.00;;;;;;4921383;29;20450;-81
2022/12/23 14:41:22;;;;;;;0.50;0.10;;;11.70;1.00;;;;;;4892580;29;20489;-81
2022/12/23 14:44:01;;;;;;;0.50;0.10;;;11.80;1.00;;;;;;4900046;29;20497;-83
2022/12/23 14:46:54;;;;;;;0.50;0.10;;;11.80;1.00;;;;;;4912210;29;20452;-83
2022/12/23 14:49:46;;;;;;;0.70;0.60;;;11.80;1.00;;;;;;4915983;29;20474;-82
2022/12/23 14:52:46;;;;;;;0.50;0.10;;;11.80;1.00;;;;;;4914096;29;20457;-83
2022/12/23 14:55:40;;;;;;;0.50;0.10;;;11.80;1.00;;;;;;4914771;29;20857;-80
2022/12/23 14:58:54;;;;;;;3.53;3.40;;;11.90;1.00;;;;;;4915460;29;20450;-80
2022/12/23 15:01:26;;;;;;;0.50;0.10;;;;;;;;;;4904130;29;20544;-81
2022/12/23 15:04:18;;;;;;;0.50;0.10;;;11.90;1.00;;;;;;4912610;29;20474;-80
2022/12/23 15:06:49;;;;;;;0.50;0.10;;;11.80;1.00;;;;;;4912256;29;20457;-80
2022/12/23 15:09:22;;;;;;;0.50;0.20;;;11.80;1.00;;;;;;4913363;29;20464;-80
2022/12/23 15:11:50;;;;;;;0.50;0.10;;;11.80;1.00;;;;;;4916728;29;20448;-80
2022/12/23 15:14:25;;;;;;;0.50;0.10;;;11.80;1.00;;;;;;4914724;29;20481;-78
2022/12/23 15:16:53;;;;;;;0.50;0.10;;;11.90;1.00;;;;;;4911452;29;20450;-80
2022/12/23 15:19:25;;;;;;;0.50;0.10;;;11.80;1.00;;;;;;4906306;29;20485;-80
2022/12/23 15:22:05;;;;;;;0.73;0.47;;;11.70;1.00;;;;;;4916916;29;20981;-81
2022/12/23 15:24:49;;;;;;;0.50;0.10;;;11.70;1.00;;;;;;4918186;29;20468;-80
2022/12/23 15:27:19;;;;;;;0.50;0.20;;;11.70;1.00;;;;;;4917358;29;20469;-80
2022/12/23 15:29:57;;;;;;;2.57;2.23;;;11.70;1.00;;;;;;4914983;29;20494;-80
2022/12/23 15:32:27;;;;;;;0.50;0.17;;;11.70;1.00;;;;;;4895973;29;20463;-78
2022/12/23 15:35:03;;;;;;;0.50;0.10;;;11.70;1.00;;;;;;4903690;29;20465;-76
2022/12/23 15:37:32;;;;;;;0.50;0.20;;;11.70;1.00;;;;;;4916788;23;20572;-76
2022/12/23 15:40:00;;;;;;;0.50;0.10;;;11.80;1.00;;;;;;4894010;29;20534;-76
2022/12/23 15:42:48;;;;;;;0.50;0.10;;;11.70;1.00;;;;;;4889195;29;20486;-76
2022/12/23 15:45:31;;;;;;;0.70;0.70;;;11.80;1.00;;;;;;4886354;29;20450;-80
2022/12/23 15:47:59;;;;;;;0.50;0.10;;;11.80;1.00;;;;;;4884279;29;20546;-74
2022/12/23 15:50:30;;;;;;;0.60;0.23;;;11.70;1.00;;;;;;4889490;29;20457;-77
2022/12/23 15:53:05;;;;;;;0.50;0.10;;;11.70;1.00;;;;;;4885325;29;20455;-77
2022/12/23 15:55:36;;;;;;;3.60;1.03;;;11.70;1.00;;;;;;4884065;29;20478;-76
2022/12/23 15:58:04;;;;;;;0.50;0.10;;;11.70;1.00;;;;;;4887564;29;20479;-76
2022/12/23 16:00:38;;;;;;;0.50;0.20;;;11.70;1.00;;;;;;4883735;29;20497;-78
2022/12/23 16:03:18;;;;;;;0.50;0.10;;;11.70;1.00;;;;;;4880958;29;20486;-77
2022/12/23 16:05:47;;;;;;;0.50;0.20;;;11.70;1.00;;;;;;4882665;29;20458;-77
2022/12/23 16:08:23;;;;;;;0.50;0.20;;;11.80;1.00;;;;;;4880968;29;20471;-77
2022/12/23 16:11:03;;;;;;;0.93;0.47;;;11.80;1.00;;;;;;4876222;29;21045;-77
2022/12/23 16:13:31;;;;;;;1.27;0.83;;;11.90;1.00;;;;;;4886668;29;20453;-77
2022/12/23 16:16:19;;;;;;;0.50;0.30;;;11.90;1.00;;;;;;4886615;29;20455;-77
2022/12/23 16:18:47;;;;;;;0.60;0.40;;;11.90;1.00;;;;;;4883321;29;20446;-78
2022/12/23 16:21:17;;;;;;;1.27;1.17;;;12.00;1.00;;;;;;4881843;29;20628;-77
2022/12/23 16:23:50;;;;;;;0.50;0.10;;;12.00;1.00;;;;;;4878524;29;20466;-78
2022/12/23 16:26:19;;;;;;;0.50;0.10;;;12.10;1.00;;;;;;4880981;29;20519;-77
2022/12/23 16:28:49;;;;;;;2.80;0.50;;;12.10;1.00;;;;;;4873530;29;20465;-77
2022/12/23 16:31:19;;;;;;;0.83;0.40;;;12.10;1.00;;;;;;4885275;29;20451;-78
2022/12/23 16:33:50;;;;;;;0.60;0.53;;;12.10;1.00;;;;;;4884597;29;20535;-77
2022/12/23 16:36:22;;;;;;;1.27;0.70;;;12.20;1.00;;;;;;4886914;29;20820;-77
2022/12/23 16:38:52;;;;;;;0.50;0.30;;;12.20;1.00;;;;;;4881597;29;20450;-77
2022/12/23 16:41:20;;;;;;;1.53;1.47;;;12.30;1.00;;;;;;4880093;29;20493;-79
2022/12/23 16:43:48;;;;;;;4.40;1.20;;;12.30;1.00;;;;;;4880275;29;20954;-77
2022/12/23 16:46:21;;;;;;;2.70;1.80;;;12.30;1.00;;;;;;4887753;29;20563;-78
2022/12/23 16:48:52;;;;;;;1.47;0.70;;;12.30;1.00;;;;;;4896090;29;20469;-78
2022/12/23 16:51:24;;;;;;;0.70;0.70;;;12.30;1.00;;;;;;4885113;29;20455;-77
2022/12/23 16:53:55;;;;;;;1.60;1.43;;;12.40;1.00;;;;;;4879006;29;20477;-74
2022/12/23 16:56:27;;;;;;;0.63;0.63;;;12.40;1.00;;;;;;4880746;29;20462;-73
2022/12/23 16:58:55;;;;;;;1.00;0.63;;;12.40;1.00;;;;;;4882240;29;20466;-74
2022/12/23 17:01:25;;;;;;;0.50;0.10;;;12.40;1.00;;;;;;4879565;29;20498;-74
2022/12/23 17:03:54;;;;;;;0.50;0.20;;;12.50;1.00;;;;;;4877992;29;20458;-76
2022/12/23 17:06:24;;;;;;;0.50;0.10;;;14.00;19.10;;;;;;4878385;29;20467;-75
2022/12/23 17:08:53;;;;;;;0.50;0.10;;;12.60;37.90;;;;;;4879110;29;20465;-75
2022/12/23 17:11:23;;;;;;;0.50;0.10;;;12.70;23.30;;;;;;4869555;29;20534;-76
2022/12/23 17:13:51;;;;;;;0.50;0.10;;;12.60;1.00;;;;;;4864754;29;20451;-73
2022/12/23 17:16:28;;;;;;;0.50;0.20;;;12.60;1.00;;;;;;4877883;29;20475;-73
2022/12/23 17:18:56;;;;;;;0.50;0.20;;;13.60;1.00;;;;;;4882393;29;20533;-74
2022/12/23 17:21:29;;;;;;;4.50;4.10;;;12.40;1.00;;;;;;4886606;29;21035;-74
2022/12/23 17:24:04;;;;;;;1.50;1.40;;;12.30;1.00;;;;;;4875868;29;20466;-74
2022/12/23 17:26:32;;;;;;;0.50;0.10;;;12.20;1.00;;;;;;4875644;29;20482;-75
2022/12/23 17:29:01;;;;;;;0.50;0.10;;;12.20;1.00;;;;;;4874319;29;20458;-74
2022/12/23 17:31:29;;;;;;;1.93;1.53;;;12.20;1.00;;;;;;4871581;29;20450;-73
2022/12/23 17:33:57;;;;;;;1.07;0.97;;;12.30;1.00;;;;;;4875929;29;20478;-75